createdAt,value
2022-11-22T00:01:14.026Z,3.10
2022-11-22T00:03:43.570Z,4.47
2022-11-22T00:06:32.806Z,4.20
2022-11-22T00:09:02.944Z,3.17
2022-11-22T00:11:36.658Z,2.50
2022-11-22T00:20:00.905Z,3.50
2022-11-22T00:22:33.072Z,5.77
2022-11-22T00:25:04.129Z,2.83
2022-11-22T00:27:32.811Z,3.03
2022-11-22T00:30:11.304Z,5.50
2022-11-22T00:32:54.963Z,4.10
2022-11-22T00:35:24.733Z,4.37
2022-11-22T00:37:56.301Z,3.13
2022-11-22T00:40:41.962Z,3.57
2022-11-22T00:43:31.002Z,3.17
2022-11-22T00:46:02.862Z,3.27
2022-11-22T00:48:31.782Z,4.67
2022-11-22T00:53:53.636Z,2.67
2022-11-22T00:59:19.096Z,2.90
2022-11-22T01:04:48.582Z,6.13
2022-11-22T01:07:18.892Z,3.07
2022-11-22T01:09:48.411Z,4.73
2022-11-22T01:12:18.867Z,3.33
2022-11-22T01:14:52.235Z,3.80
2022-11-22T01:17:23.070Z,5.57
2022-11-22T01:19:53.456Z,5.07
2022-11-22T01:22:24.145Z,2.87
2022-11-22T01:25:00.292Z,4.77
2022-11-22T01:27:30.664Z,3.73
2022-11-22T01:30:02.056Z,3.70
2022-11-22T01:32:31.760Z,2.53
2022-11-22T01:35:01.929Z,3.07
2022-11-22T01:37:33.731Z,4.03
2022-11-22T01:40:04.705Z,4.23
2022-11-22T01:42:45.337Z,3.00
2022-11-22T01:45:48.748Z,3.73
2022-11-22T01:48:38.212Z,5.73
2022-11-22T01:51:22.170Z,3.67
2022-11-22T01:53:52.622Z,3.20
2022-11-22T01:56:28.016Z,2.93
2022-11-22T01:59:01.337Z,7.87
2022-11-22T02:01:34.748Z,6.03
2022-11-22T02:04:10.434Z,4.80
2022-11-22T02:07:01.718Z,7.83
2022-11-22T02:09:33.716Z,2.93
2022-11-22T02:14:51.020Z,4.57
2022-11-22T02:17:22.663Z,3.60
2022-11-22T02:19:53.848Z,2.00
2022-11-22T02:22:27.691Z,3.37
2022-11-22T02:25:00.494Z,6.00
2022-11-22T02:28:08.093Z,1.43
2022-11-22T02:30:42.848Z,2.40
2022-11-22T02:33:12.015Z,1.70
2022-11-22T02:35:45.400Z,4.03
2022-11-22T02:38:19.235Z,3.03
2022-11-22T02:40:52.878Z,2.70
2022-11-22T02:43:26.990Z,2.40
2022-11-22T02:45:55.936Z,1.37
2022-11-22T02:48:25.899Z,1.57
2022-11-22T02:50:54.902Z,2.70
2022-11-22T02:53:24.854Z,1.47
2022-11-22T02:55:53.691Z,3.30
2022-11-22T02:58:24.515Z,1.87
2022-11-22T03:00:53.395Z,1.87
2022-11-22T03:03:22.933Z,3.33
2022-11-22T03:05:52.496Z,0.90
2022-11-22T03:08:21.469Z,1.40
2022-11-22T03:10:52.060Z,1.93
2022-11-22T03:13:21.446Z,1.27
2022-11-22T03:15:52.151Z,1.87
2022-11-22T03:18:20.954Z,1.20
2022-11-22T03:20:51.267Z,1.30
2022-11-22T03:23:19.987Z,0.93
2022-11-22T03:25:48.717Z,3.03
2022-11-22T03:28:17.532Z,1.50
2022-11-22T03:30:49.536Z,1.00
2022-11-22T03:33:20.040Z,1.80
2022-11-22T03:35:48.662Z,1.40
2022-11-22T03:38:17.758Z,1.20
2022-11-22T03:40:49.058Z,0.90
2022-11-22T03:43:18.745Z,0.80
2022-11-22T03:45:48.248Z,1.10
2022-11-22T03:48:17.130Z,1.23
2022-11-22T03:51:07.278Z,0.77
2022-11-22T03:53:37.109Z,1.27
2022-11-22T03:56:06.545Z,1.83
2022-11-22T03:58:36.031Z,1.50
2022-11-22T04:01:05.470Z,1.97
2022-11-22T04:03:37.040Z,1.57
2022-11-22T04:06:07.296Z,2.27
2022-11-22T04:08:37.524Z,1.53
2022-11-22T04:11:07.571Z,2.00
2022-11-22T04:13:49.721Z,1.67
2022-11-22T04:16:19.192Z,1.60
2022-11-22T04:18:48.636Z,1.80
2022-11-22T04:21:37.012Z,3.10
2022-11-22T04:24:25.208Z,3.80
2022-11-22T04:26:54.048Z,2.20
2022-11-22T04:29:23.804Z,3.00
2022-11-22T04:32:10.488Z,1.13
2022-11-22T04:34:40.393Z,0.80
2022-11-22T04:37:10.627Z,1.03
2022-11-22T04:39:39.301Z,1.30
2022-11-22T04:42:25.746Z,2.97
2022-11-22T04:44:54.902Z,2.10
2022-11-22T04:47:43.887Z,1.47
2022-11-22T04:50:33.946Z,6.97
2022-11-22T04:53:05.069Z,2.17
2022-11-22T04:55:34.331Z,2.27
2022-11-22T04:58:03.942Z,1.17
2022-11-22T05:00:33.882Z,2.07
2022-11-22T05:03:02.445Z,1.20
2022-11-22T05:05:31.845Z,3.47
2022-11-22T05:08:02.252Z,2.80
2022-11-22T05:10:54.211Z,1.50
2022-11-22T05:13:37.659Z,1.93
2022-11-22T05:16:08.955Z,2.80
2022-11-22T05:18:38.382Z,1.30
2022-11-22T05:21:08.718Z,1.30
2022-11-22T05:24:03.847Z,1.10
2022-11-22T05:26:37.715Z,1.10
2022-11-22T05:29:07.423Z,2.00
2022-11-22T05:31:37.523Z,1.37
2022-11-22T05:34:06.414Z,1.97
2022-11-22T05:36:36.286Z,1.43
2022-11-22T05:39:06.254Z,1.77
2022-11-22T05:41:36.470Z,3.67
2022-11-22T05:44:04.838Z,3.37
2022-11-22T05:46:33.422Z,2.43
2022-11-22T05:49:02.026Z,2.40
2022-11-22T05:51:34.432Z,6.57
2022-11-22T05:54:03.944Z,3.87
2022-11-22T05:56:35.844Z,2.90
2022-11-22T05:59:06.961Z,2.40
2022-11-22T06:01:37.348Z,2.73
2022-11-22T06:04:05.957Z,2.00
2022-11-22T06:06:34.295Z,3.97
2022-11-22T06:09:02.551Z,2.20
2022-11-22T06:11:30.926Z,2.53
2022-11-22T06:14:03.435Z,2.53
2022-11-22T06:16:33.358Z,2.73
2022-11-22T06:19:01.798Z,3.33
2022-11-22T06:21:41.595Z,4.57
2022-11-22T06:24:10.544Z,3.37
2022-11-22T06:26:39.751Z,4.70
2022-11-22T06:29:08.111Z,4.80
2022-11-22T06:31:38.308Z,2.97
2022-11-22T06:34:06.789Z,3.40
2022-11-22T06:36:36.130Z,5.03
2022-11-22T06:39:04.695Z,5.67
2022-11-22T06:41:34.656Z,5.43
2022-11-22T06:44:06.779Z,5.70
2022-11-22T06:46:35.490Z,3.70
2022-11-22T06:49:05.808Z,4.73
2022-11-22T06:51:35.600Z,3.77
2022-11-22T06:54:05.692Z,3.20
2022-11-22T06:56:36.934Z,3.80
2022-11-22T06:59:06.825Z,4.27
2022-11-22T07:01:37.666Z,6.10
2022-11-22T07:04:09.623Z,4.80
2022-11-22T07:06:40.691Z,3.90
2022-11-22T07:09:10.789Z,4.07
2022-11-22T07:11:40.991Z,3.57
2022-11-22T07:14:12.150Z,3.17
2022-11-22T07:16:53.484Z,2.70
2022-11-22T07:19:26.270Z,4.53
2022-11-22T07:21:57.662Z,3.80
2022-11-22T07:24:27.698Z,5.13
2022-11-22T07:27:02.758Z,3.70
2022-11-22T07:29:32.653Z,4.27
2022-11-22T07:32:16.132Z,4.60
2022-11-22T07:34:51.946Z,6.40
2022-11-22T07:37:22.102Z,3.43
2022-11-22T07:39:55.149Z,5.03
2022-11-22T07:42:26.360Z,6.60
2022-11-22T07:45:02.471Z,4.27
2022-11-22T07:47:31.965Z,7.23
2022-11-22T07:50:14.804Z,5.70
2022-11-22T07:52:50.860Z,6.27
2022-11-22T07:55:22.192Z,4.80
2022-11-22T08:06:42.932Z,9.53
2022-11-22T08:09:16.114Z,5.47
2022-11-22T08:17:38.678Z,7.13
2022-11-22T08:20:09.353Z,6.00
2022-11-22T08:22:43.572Z,5.07
2022-11-22T08:28:02.765Z,7.57
2022-11-22T08:30:31.543Z,7.80
2022-11-22T08:35:43.800Z,7.23
2022-11-22T08:38:13.960Z,8.47
2022-11-22T08:40:44.124Z,8.97
2022-11-22T08:43:12.834Z,8.70
2022-11-22T08:45:41.784Z,10.47
2022-11-22T08:48:10.459Z,13.93
2022-11-22T08:50:40.192Z,10.10
2022-11-22T08:53:09.103Z,8.37
2022-11-22T08:55:41.476Z,8.93
2022-11-22T08:58:11.368Z,11.47
2022-11-22T09:00:41.945Z,8.93
2022-11-22T09:03:11.651Z,10.43
2022-11-22T09:08:32.814Z,11.27
2022-11-22T09:11:10.163Z,7.33
2022-11-22T09:13:39.471Z,9.23
2022-11-22T09:16:09.889Z,10.47
2022-11-22T09:18:38.493Z,12.43
2022-11-22T09:21:08.540Z,9.23
2022-11-22T09:23:38.177Z,10.83
2022-11-22T09:26:10.864Z,6.67
2022-11-22T09:28:40.002Z,8.80
2022-11-22T09:31:11.672Z,7.80
2022-11-22T09:33:42.826Z,8.00
2022-11-22T09:36:13.458Z,6.57
2022-11-22T09:38:42.351Z,6.03
2022-11-22T09:41:23.616Z,9.67
2022-11-22T09:43:57.853Z,10.50
2022-11-22T09:46:34.414Z,9.03
2022-11-22T09:49:11.230Z,9.40
2022-11-22T09:51:55.857Z,9.07
2022-11-22T09:54:26.104Z,13.07
2022-11-22T09:56:58.588Z,9.30
2022-11-22T09:59:32.066Z,11.33
2022-11-22T10:02:18.226Z,8.63
2022-11-22T10:04:50.317Z,6.70
2022-11-22T10:07:23.889Z,8.60
2022-11-22T10:09:57.492Z,6.73
2022-11-22T10:12:37.102Z,8.33
2022-11-22T10:21:18.266Z,8.70
2022-11-22T10:23:48.665Z,5.70
2022-11-22T10:26:25.593Z,4.63
2022-11-22T10:29:10.447Z,8.83
2022-11-22T10:35:24.020Z,4.93
2022-11-22T10:38:00.640Z,9.47
2022-11-22T10:40:37.034Z,7.53
2022-11-22T10:43:32.716Z,9.10
2022-11-22T10:46:06.166Z,8.17
2022-11-22T10:48:42.829Z,4.60
2022-11-22T10:51:24.004Z,5.37
2022-11-22T10:54:03.676Z,4.90
2022-11-22T10:56:35.876Z,7.20
2022-11-22T10:59:32.476Z,6.50
2022-11-22T11:02:05.855Z,8.87
2022-11-22T11:04:36.128Z,6.00
2022-11-22T11:07:13.079Z,6.63
2022-11-22T11:15:38.917Z,6.67
2022-11-22T11:42:26.126Z,6.30
2022-11-22T11:56:36.794Z,5.37
2022-11-22T11:59:11.059Z,5.40
2022-11-22T12:04:37.126Z,6.83
2022-11-22T12:07:11.842Z,3.47
2022-11-22T12:09:48.987Z,4.90
2022-11-22T12:12:23.369Z,2.20
2022-11-22T12:17:57.936Z,7.47
2022-11-22T12:20:32.529Z,5.97
2022-11-22T12:23:18.329Z,9.77
2022-11-22T12:25:49.841Z,4.83
2022-11-22T12:28:20.944Z,6.33
2022-11-22T12:30:56.003Z,5.13
2022-11-22T12:33:27.640Z,3.90
2022-11-22T12:35:56.869Z,7.50
2022-11-22T12:38:29.515Z,9.53
2022-11-22T12:41:01.744Z,4.87
2022-11-22T12:43:34.041Z,6.27
2022-11-22T12:46:08.569Z,6.10
2022-11-22T12:48:23.886Z,5.87
2022-11-22T12:48:41.537Z,5.50
2022-11-22T12:51:16.516Z,3.27
2022-11-22T12:53:52.723Z,2.47
2022-11-22T12:56:31.463Z,5.13
2022-11-22T12:59:05.672Z,4.60
2022-11-22T13:01:41.821Z,12.27
2022-11-22T13:04:21.181Z,10.17
2022-11-22T13:07:02.377Z,5.60
2022-11-22T13:09:35.241Z,5.90
2022-11-22T13:15:04.960Z,5.27
2022-11-22T13:18:03.537Z,4.53
2022-11-22T13:20:42.709Z,3.67
2022-11-22T13:23:21.352Z,4.80
2022-11-22T13:25:58.105Z,5.40
2022-11-22T13:28:38.945Z,2.93
2022-11-22T13:31:32.127Z,6.70
2022-11-22T13:34:08.283Z,4.50
2022-11-22T13:36:56.646Z,6.03
2022-11-22T13:39:31.043Z,6.97
2022-11-22T13:45:26.182Z,5.13
2022-11-22T13:48:10.740Z,5.07
2022-11-22T13:53:31.828Z,6.00
2022-11-22T13:56:11.805Z,4.63
2022-11-22T14:01:34.171Z,5.20
2022-11-22T14:04:27.057Z,3.80
2022-11-22T14:07:00.413Z,6.27
2022-11-22T14:09:45.398Z,5.67
2022-11-22T14:12:24.077Z,5.73
2022-11-22T14:17:59.776Z,6.73
2022-11-22T14:20:45.026Z,3.77
2022-11-22T14:26:14.559Z,6.63
2022-11-22T14:29:26.333Z,4.00
2022-11-22T14:31:56.416Z,4.53
2022-11-22T14:34:26.842Z,4.63
2022-11-22T14:37:34.814Z,5.83
2022-11-22T14:40:31.986Z,3.60
2022-11-22T14:46:19.530Z,6.30
2022-11-22T14:49:11.151Z,5.20
2022-11-22T14:51:43.343Z,12.63
2022-11-22T14:54:21.829Z,3.10
2022-11-22T14:57:02.736Z,2.83
2022-11-22T14:59:55.365Z,6.03
2022-11-22T15:03:03.476Z,4.07
2022-11-22T15:12:15.991Z,6.40
2022-11-22T15:57:34.192Z,4.80
2022-11-22T16:00:03.890Z,4.63
2022-11-22T16:02:33.307Z,5.13
2022-11-22T16:06:05.994Z,6.57
2022-11-22T16:07:51.785Z,6.20
2022-11-22T16:10:21.933Z,5.07
2022-11-22T16:12:53.029Z,6.57
2022-11-22T16:15:28.349Z,7.03
2022-11-22T16:17:59.705Z,6.33
2022-11-22T16:33:39.842Z,6.10
2022-11-22T16:54:17.792Z,5.80
2022-11-22T16:57:04.613Z,4.77
2022-11-22T16:59:49.305Z,7.23
2022-11-22T17:14:30.755Z,5.43
2022-11-22T17:23:37.859Z,4.73
2022-11-22T17:26:07.097Z,4.60
2022-11-22T17:31:30.840Z,9.40
2022-11-22T17:34:00.622Z,6.30
2022-11-22T17:36:31.041Z,5.60
2022-11-22T17:39:01.348Z,5.90
2022-11-22T17:41:30.386Z,5.93
2022-11-22T17:43:58.767Z,4.37
2022-11-22T17:46:28.419Z,7.13
2022-11-22T17:48:59.896Z,7.13
2022-11-22T17:51:29.133Z,7.23
2022-11-22T17:53:58.962Z,5.27
2022-11-22T17:56:33.784Z,6.50
2022-11-22T17:59:03.844Z,3.07
2022-11-22T18:01:54.879Z,7.00
2022-11-22T18:04:23.428Z,6.00
2022-11-22T18:06:52.065Z,5.97
2022-11-22T18:09:20.738Z,7.87
2022-11-22T18:11:51.553Z,9.07
2022-11-22T18:14:20.466Z,4.23
2022-11-22T18:16:49.764Z,5.50
2022-11-22T18:19:21.399Z,4.80
2022-11-22T18:21:50.788Z,5.53
2022-11-22T18:24:20.680Z,7.13
2022-11-22T18:26:51.584Z,6.97
2022-11-22T18:29:42.640Z,6.03
2022-11-22T18:32:26.831Z,10.43
2022-11-22T18:37:38.213Z,25.20
2022-11-22T18:40:09.403Z,14.03
2022-11-22T18:42:38.872Z,10.87
2022-11-22T18:45:10.627Z,9.03
2022-11-22T18:47:41.467Z,8.03
2022-11-22T18:52:44.605Z,6.73
2022-11-22T18:55:17.791Z,5.27
2022-11-22T18:57:47.251Z,4.73
2022-11-22T19:00:26.159Z,4.67
2022-11-22T19:02:55.645Z,6.90
2022-11-22T19:05:24.694Z,4.20
2022-11-22T19:07:53.837Z,7.33
2022-11-22T19:10:23.596Z,7.47
2022-11-22T19:12:52.206Z,7.13
2022-11-22T19:15:24.364Z,8.47
2022-11-22T19:17:59.116Z,5.63
2022-11-22T19:20:54.256Z,7.10
2022-11-22T19:23:18.727Z,8.73
2022-11-22T19:25:49.618Z,9.27
2022-11-22T19:28:18.297Z,9.23
2022-11-22T19:30:49.958Z,8.37
2022-11-22T19:33:23.567Z,9.23
2022-11-22T19:41:37.457Z,5.90
2022-11-22T19:46:54.113Z,7.53
2022-11-22T19:49:26.734Z,7.87
2022-11-22T19:51:56.781Z,10.23
2022-11-22T19:54:26.784Z,3.83
2022-11-22T19:56:56.607Z,6.73
2022-11-22T19:59:26.851Z,5.17
2022-11-22T20:02:13.198Z,4.83
2022-11-22T20:04:44.323Z,8.70
2022-11-22T20:10:04.611Z,5.23
2022-11-22T20:12:33.714Z,6.90
2022-11-22T20:15:04.317Z,6.47
2022-11-22T20:17:36.696Z,5.87
2022-11-22T20:20:07.971Z,6.20
2022-11-22T20:22:38.715Z,9.67
2022-11-22T20:25:09.427Z,7.83
2022-11-22T20:27:38.305Z,9.03
2022-11-22T20:30:11.029Z,6.27
2022-11-22T20:32:48.344Z,8.07
2022-11-22T20:35:16.872Z,7.07
2022-11-22T20:37:45.640Z,9.47
2022-11-22T20:40:15.737Z,8.20
2022-11-22T20:42:46.412Z,6.50
2022-11-22T20:45:18.543Z,5.67
2022-11-22T20:47:51.201Z,7.30
2022-11-22T20:50:24.262Z,6.27
2022-11-22T20:52:53.746Z,5.17
2022-11-22T20:55:23.036Z,5.90
2022-11-22T20:57:54.841Z,7.20
2022-11-22T21:00:26.342Z,6.20
2022-11-22T21:02:59.134Z,7.37
2022-11-22T21:05:36.235Z,8.30
2022-11-22T21:08:07.404Z,5.47
2022-11-22T21:10:52.678Z,6.30
2022-11-22T21:16:22.305Z,7.23
2022-11-22T21:18:58.861Z,8.10
2022-11-22T21:21:29.212Z,6.83
2022-11-22T21:24:01.211Z,6.43
2022-11-22T21:26:30.608Z,5.83
2022-11-22T21:29:02.208Z,5.67
2022-11-22T21:31:31.282Z,6.33
2022-11-22T21:37:13.527Z,5.43
2022-11-22T21:39:43.803Z,6.40
2022-11-22T21:42:13.558Z,6.50
2022-11-22T21:44:42.614Z,5.33
2022-11-22T21:47:11.875Z,5.40
2022-11-22T21:49:43.343Z,5.47
2022-11-22T21:52:14.039Z,7.20
2022-11-22T21:54:42.921Z,6.80
2022-11-22T21:57:12.294Z,5.57
2022-11-22T21:59:41.487Z,5.13
2022-11-22T22:02:11.490Z,5.37
2022-11-22T22:04:40.024Z,3.50
2022-11-22T22:07:23.657Z,8.57
2022-11-22T22:09:59.474Z,5.37
2022-11-22T22:12:31.754Z,5.50
2022-11-22T22:15:01.426Z,5.17
2022-11-22T22:17:36.532Z,5.27
2022-11-22T22:20:07.495Z,4.07
2022-11-22T22:32:17.251Z,6.23
2022-11-22T22:34:47.465Z,3.37
2022-11-22T22:37:16.524Z,2.87
2022-11-22T22:42:23.252Z,4.83
2022-11-22T22:44:52.715Z,3.00
2022-11-22T22:47:25.822Z,6.00
2022-11-22T22:49:54.702Z,4.63
2022-11-22T22:52:26.042Z,3.23
2022-11-22T22:54:58.698Z,3.77
2022-11-22T22:57:36.427Z,3.60
2022-11-22T23:00:08.642Z,6.13
2022-11-22T23:02:42.077Z,4.70
2022-11-22T23:05:12.595Z,7.70
2022-11-22T23:07:44.033Z,5.67
2022-11-22T23:10:16.369Z,4.53
2022-11-22T23:12:53.247Z,4.57
2022-11-22T23:15:43.825Z,5.90
2022-11-22T23:18:13.741Z,2.40
2022-11-22T23:20:46.071Z,4.80
2022-11-22T23:23:16.308Z,4.00
2022-11-22T23:25:45.420Z,3.73
2022-11-22T23:28:14.419Z,4.60
2022-11-22T23:30:43.474Z,6.30
2022-11-22T23:33:15.190Z,2.87
2022-11-22T23:35:43.899Z,6.73
2022-11-22T23:38:13.770Z,3.57
2022-11-22T23:40:42.545Z,2.23
2022-11-22T23:43:11.737Z,3.83
2022-11-22T23:45:40.389Z,7.03
2022-11-22T23:48:09.823Z,5.00
2022-11-22T23:50:41.672Z,2.83
2022-11-22T23:53:10.636Z,3.93
2022-11-22T23:55:40.487Z,5.27
2022-11-22T23:58:09.441Z,4.57
